Time;durP1;ratioP1;P1;durP2;ratioP2;P2;SDS_P1;SDS_P2;PMS_P1;PMS_P2;Temp;Humidity;BMP_temperature;BMP_pressure;BME280_temperature;BME280_humidity;BME280_pressure;Samples;Min_cycle;Max_cycle;Signal;HPM_P1;HPM_P2
2022/04/04 00:01:42;;;;;;;;;32.50;31.25;;;;;-142.59;100.00;56100.38;5110941;27;50137;-64
2022/04/04 00:04:07;;;;;;;;;23.75;22.00;;;;;-142.59;100.00;56100.38;5110587;27;50456;-64
2022/04/04 00:06:33;;;;;;;;;24.50;21.75;;;;;-142.59;100.00;56100.38;5110346;27;49908;-64
2022/04/04 00:08:58;;;;;;;;;30.50;25.00;;;;;-142.59;100.00;56100.38;5110522;27;49720;-63
2022/04/04 00:11:24;;;;;;;;;28.50;26.50;;;;;-142.59;100.00;56100.38;5113371;27;49977;-62
2022/04/04 00:13:49;;;;;;;;;29.00;27.75;;;;;-142.59;100.00;56100.38;5110209;27;51002;-64
2022/04/04 00:16:14;;;;;;;;;29.25;28.75;;;;;-142.59;100.00;56100.38;5110223;27;49749;-63
2022/04/04 00:18:40;;;;;;;;;23.00;22.00;;;;;-142.59;100.00;56100.38;5095707;27;49899;-63
2022/04/04 00:21:05;;;;;;;;;23.00;20.00;;;;;-142.59;100.00;56100.38;5110680;27;49934;-64
2022/04/04 00:23:31;;;;;;;;;28.00;25.00;;;;;-142.59;100.00;56100.38;5113259;27;50487;-63
2022/04/04 00:25:56;;;;;;;;;26.75;24.25;;;;;-142.59;100.00;56100.38;5119672;27;49719;-63
2022/04/04 00:28:21;;;;;;;;;21.75;21.75;;;;;-142.59;100.00;56100.38;5116490;27;49744;-63
2022/04/04 00:30:47;;;;;;;;;29.75;26.25;;;;;-142.59;100.00;56100.38;5091394;27;49833;-64
2022/04/04 00:33:12;;;;;;;;;29.50;25.50;;;;;-142.59;100.00;56100.38;5093247;27;50499;-65
2022/04/04 00:35:38;;;;;;;;;26.50;23.25;;;;;-142.59;100.00;56100.38;5090177;27;49794;-64
2022/04/04 00:38:08;;;;;;;;;23.75;22.25;;;;;-142.59;100.00;56100.38;5092781;27;49736;-64
2022/04/04 00:40:33;;;;;;;;;20.25;19.75;;;;;-142.59;100.00;56100.38;5095239;27;49743;-64
2022/04/04 00:42:59;;;;;;;;;21.25;19.75;;;;;-142.59;100.00;56100.38;5093161;27;50725;-64
2022/04/04 00:45:24;;;;;;;;;20.75;14.75;;;;;-142.59;100.00;56100.38;5098210;27;49604;-62
2022/04/04 00:47:50;;;;;;;;;26.25;22.00;;;;;-142.59;100.00;56100.38;5092826;27;49765;-63
2022/04/04 00:50:15;;;;;;;;;20.25;18.75;;;;;-142.59;100.00;56100.38;5096963;27;50037;-62
2022/04/04 00:52:41;;;;;;;;;20.25;17.00;;;;;-142.59;100.00;56100.38;5093277;27;50169;-63
2022/04/04 00:55:10;;;;;;;;;20.00;16.75;;;;;-142.59;100.00;56100.38;5093422;27;49836;-62
2022/04/04 00:57:39;;;;;;;;;20.50;16.75;;;;;-142.59;100.00;56100.38;5097457;27;49900;-65
2022/04/04 01:00:07;;;;;;;;;23.75;19.50;;;;;-142.59;100.00;56100.38;5093961;27;49729;-65
2022/04/04 01:02:32;;;;;;;;;20.50;17.75;;;;;-142.59;100.00;56100.38;5093360;27;50611;-63
2022/04/04 01:04:58;;;;;;;;;24.00;19.25;;;;;-142.59;100.00;56100.38;5096577;27;49717;-62
2022/04/04 01:07:23;;;;;;;;;20.25;19.50;;;;;-142.59;100.00;56100.38;5099366;27;49921;-63
2022/04/04 01:09:50;;;;;;;;;24.25;22.25;;;;;-142.59;100.00;56100.38;5097324;27;49699;-62
2022/04/04 01:12:15;;;;;;;;;19.50;18.75;;;;;-142.59;100.00;56100.38;5092874;27;49714;-63
2022/04/04 01:14:48;;;;;;;;;24.75;24.25;;;;;-142.59;100.00;56100.38;5091913;27;49790;-63
2022/04/04 01:17:14;;;;;;;;;17.25;16.00;;;;;-142.59;100.00;56100.38;5098061;27;49844;-62
2022/04/04 01:19:40;;;;;;;;;21.50;21.00;;;;;-142.59;100.00;56100.38;5093384;27;49803;-63
2022/04/04 01:22:11;;;;;;;;;25.50;22.75;;;;;-142.59;100.00;56100.38;5098056;27;50278;-63
2022/04/04 01:24:38;;;;;;;;;21.25;21.00;;;;;-142.59;100.00;56100.38;5103709;27;49775;-63
2022/04/04 01:27:04;;;;;;;;;24.50;22.25;;;;;-142.59;100.00;56100.38;5099160;27;49877;-63
2022/04/04 01:29:30;;;;;;;;;23.50;21.25;;;;;-142.59;100.00;56100.38;5097141;27;49939;-63
2022/04/04 01:31:56;;;;;;;;;21.00;19.00;;;;;-142.59;100.00;56100.38;5100009;27;51435;-63
2022/04/04 01:34:22;;;;;;;;;22.50;22.50;;;;;-142.59;100.00;56100.38;5092995;27;49831;-63
2022/04/04 01:36:49;;;;;;;;;26.00;22.50;;;;;-142.59;100.00;56100.38;5098310;27;50085;-63
2022/04/04 01:39:15;;;;;;;;;36.50;23.75;;;;;-142.59;100.00;56100.38;5106914;27;49515;-63
2022/04/04 01:41:41;;;;;;;;;30.50;25.50;;;;;-142.59;100.00;56100.38;5108439;27;49387;-63
2022/04/04 01:44:06;;;;;;;;;26.75;23.00;;;;;-142.59;100.00;56100.38;5103534;27;49865;-71
2022/04/04 01:46:31;;;;;;;;;29.50;27.25;;;;;-142.59;100.00;56100.38;5126467;27;49936;-66
2022/04/04 01:48:59;;;;;;;;;25.50;22.25;;;;;-142.59;100.00;56100.38;5122234;27;49773;-70
2022/04/04 01:51:26;;;;;;;;;22.25;20.50;;;;;-142.59;100.00;56100.38;5124824;27;49815;-63
2022/04/04 01:53:52;;;;;;;;;28.50;26.50;;;;;-142.59;100.00;56100.38;5120758;27;49871;-63
2022/04/04 01:56:18;;;;;;;;;32.00;28.25;;;;;-142.59;100.00;56100.38;5124762;27;49927;-64
2022/04/04 01:58:44;;;;;;;;;28.00;26.50;;;;;-142.59;100.00;56100.38;5125056;27;49318;-67
2022/04/04 02:01:21;;;;;;;;;29.00;24.50;;;;;-142.59;100.00;56100.38;5129272;27;50074;-63
2022/04/04 02:03:51;;;;;;;;;30.25;26.50;;;;;-142.59;100.00;56100.38;5122098;27;50146;-65
2022/04/04 02:06:20;;;;;;;;;24.50;21.75;;;;;-142.59;100.00;56100.38;5106802;27;49483;-68
2022/04/04 02:08:45;;;;;;;;;20.75;20.75;;;;;-142.59;100.00;56100.38;5109615;27;49718;-71
2022/04/04 02:11:13;;;;;;;;;32.25;29.50;;;;;-142.59;100.00;56100.38;5109788;27;49355;-70
2022/04/04 02:13:39;;;;;;;;;22.00;20.75;;;;;-142.59;100.00;56100.38;5107544;27;49371;-69
2022/04/04 02:16:05;;;;;;;;;24.25;23.00;;;;;-142.59;100.00;56100.38;5110442;27;49587;-65
2022/04/04 02:18:32;;;;;;;;;19.25;15.50;;;;;-142.59;100.00;56100.38;5129326;27;49488;-72
2022/04/04 02:20:58;;;;;;;;;21.00;18.50;;;;;-142.59;100.00;56100.38;5127339;27;49942;-70
2022/04/04 02:23:24;;;;;;;;;24.00;22.50;;;;;-142.59;100.00;56100.38;5126525;27;49359;-65
2022/04/04 02:25:52;;;;;;;;;20.75;20.75;;;;;-142.59;100.00;56100.38;5126055;27;49562;-70
2022/04/04 02:28:18;;;;;;;;;24.50;22.25;;;;;-142.59;100.00;56100.38;5127896;27;49495;-71
2022/04/04 02:30:44;;;;;;;;;22.00;19.50;;;;;-142.59;100.00;56100.38;5123129;27;49657;-70
2022/04/04 02:33:10;;;;;;;;;28.50;21.50;;;;;-142.59;100.00;56100.38;5124786;27;49938;-69
2022/04/04 02:35:35;;;;;;;;;21.50;21.50;;;;;-142.59;100.00;56100.38;5129047;27;49932;-72
2022/04/04 02:38:02;;;;;;;;;21.00;19.75;;;;;-142.59;100.00;56100.38;5124012;27;49766;-71
2022/04/04 02:40:28;;;;;;;;;24.75;21.00;;;;;-142.59;100.00;56100.38;5127537;27;49633;-71
2022/04/04 02:42:54;;;;;;;;;21.50;20.00;;;;;-142.59;100.00;56100.38;5123752;27;49442;-71
2022/04/04 02:45:20;;;;;;;;;21.50;19.00;;;;;-142.59;100.00;56100.38;5121444;27;49697;-71
2022/04/04 02:47:46;;;;;;;;;18.50;17.50;;;;;-142.59;100.00;56100.38;5118518;27;50054;-66
2022/04/04 02:50:12;;;;;;;;;18.50;18.50;;;;;-142.59;100.00;56100.38;5116190;27;50773;-71
2022/04/04 02:52:38;;;;;;;;;19.75;17.00;;;;;-142.59;100.00;56100.38;5117606;27;49745;-69
2022/04/04 02:57:49;;;;;;;;;21.50;18.00;;;;;-142.59;100.00;56100.38;5117460;27;49896;-71
2022/04/04 03:00:19;;;;;;;;;15.00;15.00;;;;;-142.59;100.00;56100.38;5119214;27;49730;-72
2022/04/04 03:02:45;;;;;;;;;19.25;17.25;;;;;-142.59;100.00;56100.38;5114681;27;49935;-71
2022/04/04 03:05:10;;;;;;;;;18.75;15.75;;;;;-142.59;100.00;56100.38;5116444;27;49805;-72
2022/04/04 03:07:36;;;;;;;;;16.50;15.25;;;;;-142.59;100.00;56100.38;5114010;27;49885;-68
2022/04/04 03:10:02;;;;;;;;;21.50;18.75;;;;;-142.59;100.00;56100.38;5118478;27;50933;-69
2022/04/04 03:12:28;;;;;;;;;15.50;15.00;;;;;-142.59;100.00;56100.38;5112245;27;49713;-70
2022/04/04 03:14:53;;;;;;;;;16.25;14.75;;;;;-142.59;100.00;56100.38;5114466;27;50143;-69
2022/04/04 03:17:18;;;;;;;;;20.25;18.75;;;;;-142.59;100.00;56100.38;5115708;27;49851;-71
2022/04/04 03:19:44;;;;;;;;;19.25;17.25;;;;;-142.59;100.00;56100.38;5116561;27;49819;-69
2022/04/04 03:22:10;;;;;;;;;14.75;13.50;;;;;-142.59;100.00;56100.38;5111572;27;49968;-72
2022/04/04 03:24:35;;;;;;;;;23.75;19.75;;;;;-142.59;100.00;56100.38;5117531;27;50133;-69
2022/04/04 03:27:01;;;;;;;;;17.50;14.50;;;;;-142.59;100.00;56100.38;5115954;27;50451;-71
2022/04/04 03:29:26;;;;;;;;;16.50;16.50;;;;;-142.59;100.00;56100.38;5113837;27;51130;-68
2022/04/04 03:31:53;;;;;;;;;19.00;16.25;;;;;-142.59;100.00;56100.38;5115354;27;49760;-70
2022/04/04 03:34:18;;;;;;;;;20.00;16.50;;;;;-142.59;100.00;56100.38;5116662;27;49696;-72
2022/04/04 03:36:44;;;;;;;;;19.00;16.00;;;;;-142.59;100.00;56100.38;5115252;27;49994;-69
2022/04/04 03:39:12;;;;;;;;;22.25;18.25;;;;;-142.59;100.00;56100.38;5115109;27;58152;-72
2022/04/04 03:41:38;;;;;;;;;18.50;17.25;;;;;-142.59;100.00;56100.38;5115693;27;49763;-70
2022/04/04 03:44:06;;;;;;;;;16.75;14.00;;;;;-142.59;100.00;56100.38;5113292;27;49899;-70
2022/04/04 03:46:32;;;;;;;;;19.25;19.25;;;;;-142.59;100.00;56100.38;5114307;27;49788;-72
2022/04/04 03:48:58;;;;;;;;;29.50;23.50;;;;;-142.59;100.00;56100.38;5116777;27;51019;-64
2022/04/04 03:51:24;;;;;;;;;23.50;18.50;;;;;-142.59;100.00;56100.38;5113945;27;49725;-62
2022/04/04 03:53:49;;;;;;;;;17.75;14.75;;;;;-142.59;100.00;56100.38;5116093;27;49727;-62
2022/04/04 03:56:15;;;;;;;;;17.00;14.50;;;;;-142.59;100.00;56100.38;5111653;27;50030;-61
2022/04/04 03:58:40;;;;;;;;;18.00;15.00;;;;;-142.59;100.00;56100.38;5118364;27;49672;-64
2022/04/04 04:01:06;;;;;;;;;18.75;15.50;;;;;-142.59;100.00;56100.38;5111515;27;49658;-63
2022/04/04 04:03:31;;;;;;;;;23.00;19.75;;;;;-142.59;100.00;56100.38;5113615;27;49791;-63
2022/04/04 04:06:11;;;;;;;;;16.50;15.50;;;;;-142.59;100.00;56100.38;5113932;27;49678;-66
2022/04/04 04:08:38;;;;;;;;;20.50;16.75;;;;;-142.59;100.00;56100.38;5113779;27;50360;-63
2022/04/04 04:11:03;;;;;;;;;20.75;16.25;;;;;-142.59;100.00;56100.38;5114464;27;49736;-64
2022/04/04 04:13:28;;;;;;;;;22.25;21.00;;;;;-142.59;100.00;56100.38;5115970;27;49768;-63
2022/04/04 04:15:54;;;;;;;;;18.25;18.00;;;;;-142.59;100.00;56100.38;5110567;27;50008;-64
2022/04/04 04:18:20;;;;;;;;;20.75;16.00;;;;;-142.59;100.00;56100.38;5110212;27;49870;-65
2022/04/04 04:20:45;;;;;;;;;26.75;22.00;;;;;-142.59;100.00;56100.38;5116413;27;50109;-64
2022/04/04 04:23:13;;;;;;;;;13.00;12.50;;;;;-142.59;100.00;56100.38;5113321;27;49743;-66
2022/04/04 04:25:38;;;;;;;;;21.50;18.00;;;;;-142.59;100.00;56100.38;5118661;27;49975;-70
2022/04/04 04:28:05;;;;;;;;;19.50;19.50;;;;;-142.59;100.00;56100.38;5118325;27;51673;-71
2022/04/04 04:30:31;;;;;;;;;20.75;17.75;;;;;-142.59;100.00;56100.38;5117510;27;49828;-67
2022/04/04 04:32:57;;;;;;;;;25.50;18.75;;;;;-142.59;100.00;56100.38;5120257;27;49927;-71
2022/04/04 04:35:23;;;;;;;;;20.25;18.75;;;;;-142.59;100.00;56100.38;5120038;27;49398;-72
2022/04/04 04:37:52;;;;;;;;;24.75;21.75;;;;;-142.59;100.00;56100.38;5119565;27;50417;-72
2022/04/04 04:40:19;;;;;;;;;22.50;18.25;;;;;-142.59;100.00;56100.38;5116575;27;49693;-71
2022/04/04 04:42:46;;;;;;;;;25.75;20.25;;;;;-142.59;100.00;56100.38;5115746;27;50035;-68
2022/04/04 04:45:13;;;;;;;;;17.00;17.00;;;;;-142.59;100.00;56100.38;5113389;27;49668;-69
2022/04/04 04:47:39;;;;;;;;;15.50;14.00;;;;;-142.59;100.00;56100.38;5119367;27;50611;-71
2022/04/04 04:50:06;;;;;;;;;19.25;19.25;;;;;-142.59;100.00;56100.38;5116475;27;49932;-68
2022/04/04 04:52:32;;;;;;;;;24.50;19.50;;;;;-142.59;100.00;56100.38;5117725;27;49636;-76
2022/04/04 04:54:58;;;;;;;;;27.00;21.75;;;;;-142.59;100.00;56100.38;5119375;27;49748;-74
2022/04/04 04:57:24;;;;;;;;;27.25;21.75;;;;;-142.59;100.00;56100.38;5107327;27;49679;-67
2022/04/04 04:59:49;;;;;;;;;24.00;20.00;;;;;-142.59;100.00;56100.38;5099054;27;49919;-72
2022/04/04 05:02:16;;;;;;;;;24.50;21.25;;;;;-142.59;100.00;56100.38;5102825;27;49722;-73
2022/04/04 05:04:41;;;;;;;;;25.50;21.25;;;;;-142.59;100.00;56100.38;5096803;27;49664;-70
2022/04/04 05:07:07;;;;;;;;;17.25;17.00;;;;;-142.59;100.00;56100.38;5093263;27;50807;-73
2022/04/04 05:09:36;;;;;;;;;21.25;15.00;;;;;-142.59;100.00;56100.38;5096830;27;49719;-72
2022/04/04 05:12:02;;;;;;;;;30.00;22.25;;;;;-142.59;100.00;56100.38;5099137;27;49973;-71
2022/04/04 05:14:27;;;;;;;;;17.00;15.00;;;;;-142.59;100.00;56100.38;5096610;27;49733;-72
2022/04/04 05:16:53;;;;;;;;;19.25;17.75;;;;;-142.59;100.00;56100.38;5096119;27;50711;-65
2022/04/04 05:19:20;;;;;;;;;28.25;21.50;;;;;-142.59;100.00;56100.38;5093183;27;49761;-69
2022/04/04 05:21:46;;;;;;;;;26.25;20.25;;;;;-142.59;100.00;56100.38;5093285;27;49793;-78
2022/04/04 05:24:12;;;;;;;;;23.25;19.25;;;;;-142.59;100.00;56100.38;5093507;27;49781;-71
2022/04/04 05:26:38;;;;;;;;;23.75;21.75;;;;;-142.59;100.00;56100.38;5092912;27;49873;-72
2022/04/04 05:29:04;;;;;;;;;30.75;25.50;;;;;-142.59;100.00;56100.38;5093126;27;50108;-73
2022/04/04 05:31:32;;;;;;;;;22.00;20.75;;;;;-142.59;100.00;56100.38;5093327;27;49586;-72
2022/04/04 05:33:59;;;;;;;;;22.00;21.00;;;;;-142.59;100.00;56100.38;5093319;27;49802;-72
2022/04/04 05:36:28;;;;;;;;;24.25;21.75;;;;;-142.59;100.00;56100.38;5092989;27;50046;-70
2022/04/04 05:38:55;;;;;;;;;23.00;20.25;;;;;-142.59;100.00;56100.38;5100934;27;49962;-76
2022/04/04 05:41:20;;;;;;;;;27.25;23.50;;;;;-142.59;100.00;56100.38;5109731;27;49715;-65
2022/04/04 05:43:47;;;;;;;;;29.75;28.50;;;;;-142.59;100.00;56100.38;5104582;27;50387;-63
2022/04/04 05:46:16;;;;;;;;;22.50;19.50;;;;;-142.59;100.00;56100.38;5112503;27;50535;-62
2022/04/04 05:48:42;;;;;;;;;27.25;24.25;;;;;-142.59;100.00;56100.38;5112763;27;49956;-62
2022/04/04 05:51:08;;;;;;;;;29.25;28.25;;;;;-142.59;100.00;56100.38;5112787;27;49677;-62
2022/04/04 05:53:34;;;;;;;;;26.00;23.25;;;;;-142.59;100.00;56100.38;5113012;27;50097;-67
2022/04/04 05:56:00;;;;;;;;;25.75;22.00;;;;;-142.59;100.00;56100.38;5112462;27;49876;-66
2022/04/04 05:58:25;;;;;;;;;23.50;23.50;;;;;-142.59;100.00;56100.38;5111933;27;49720;-64
2022/04/04 06:00:51;;;;;;;;;17.75;17.00;;;;;-142.59;100.00;56100.38;5114723;27;49900;-65
2022/04/04 06:03:18;;;;;;;;;21.25;19.25;;;;;-142.59;100.00;56100.38;5112668;27;49789;-65
2022/04/04 06:05:44;;;;;;;;;20.25;20.25;;;;;-142.59;100.00;56100.38;5112377;27;50280;-66
2022/04/04 06:08:09;;;;;;;;;22.00;19.25;;;;;-142.59;100.00;56100.38;5112298;27;49748;-64
2022/04/04 06:10:34;;;;;;;;;19.75;18.00;;;;;-142.59;100.00;56100.38;5112410;27;49808;-65
2022/04/04 06:13:00;;;;;;;;;23.75;19.50;;;;;-142.59;100.00;56100.38;5112134;27;49651;-65
2022/04/04 06:15:25;;;;;;;;;23.25;18.75;;;;;-142.59;100.00;56100.38;5112039;27;50264;-65
2022/04/04 06:17:50;;;;;;;;;16.25;14.25;;;;;-142.59;100.00;56100.38;5112290;27;49872;-66
2022/04/04 06:20:16;;;;;;;;;18.00;17.00;;;;;-142.59;100.00;56100.38;5115426;27;49668;-69
2022/04/04 06:22:43;;;;;;;;;21.00;18.50;;;;;-142.59;100.00;56100.38;5111874;27;49711;-69
2022/04/04 06:25:12;;;;;;;;;21.25;19.00;;;;;-142.59;100.00;56100.38;5111873;27;49817;-70
2022/04/04 06:27:39;;;;;;;;;20.00;18.25;;;;;-142.59;100.00;56100.38;5127562;27;49477;-68
2022/04/04 06:30:06;;;;;;;;;18.50;18.00;;;;;-142.59;100.00;56100.38;5118780;27;49916;-68
2022/04/04 06:32:33;;;;;;;;;16.75;16.25;;;;;-142.59;100.00;56100.38;5109774;27;50060;-69
2022/04/04 06:34:59;;;;;;;;;20.25;18.50;;;;;-142.59;100.00;56100.38;5111524;27;49980;-69
2022/04/04 06:37:24;;;;;;;;;19.50;15.00;;;;;-142.59;100.00;56100.38;5111640;27;49757;-68
2022/04/04 06:39:50;;;;;;;;;19.25;15.25;;;;;-142.59;100.00;56100.38;5111812;27;49829;-69
2022/04/04 06:42:15;;;;;;;;;20.50;19.25;;;;;-142.59;100.00;56100.38;5112142;27;49985;-69
2022/04/04 06:44:42;;;;;;;;;14.75;12.25;;;;;-142.59;100.00;56100.38;5110420;27;50566;-69
2022/04/04 06:47:08;;;;;;;;;22.00;16.00;;;;;-142.59;100.00;56100.38;5111791;27;49865;-68
2022/04/04 06:49:33;;;;;;;;;18.50;17.50;;;;;-142.59;100.00;56100.38;5111817;27;49791;-69
2022/04/04 06:51:59;;;;;;;;;14.75;14.75;;;;;-142.59;100.00;56100.38;5111694;27;49891;-69
2022/04/04 06:54:24;;;;;;;;;18.75;15.50;;;;;-142.59;100.00;56100.38;5111112;27;50461;-68
2022/04/04 06:56:49;;;;;;;;;15.75;15.25;;;;;-142.59;100.00;56100.38;5110268;27;49871;-68
2022/04/04 06:59:19;;;;;;;;;19.00;14.75;;;;;-142.59;100.00;56100.38;5111523;27;50522;-69
2022/04/04 07:01:44;;;;;;;;;20.75;19.50;;;;;-142.59;100.00;56100.38;5111722;27;49814;-68
2022/04/04 07:04:11;;;;;;;;;17.50;16.50;;;;;-142.59;100.00;56100.38;5111327;27;50733;-69
2022/04/04 07:06:37;;;;;;;;;26.00;17.25;;;;;-142.59;100.00;56100.38;5111233;27;49692;-69
2022/04/04 07:09:03;;;;;;;;;13.00;12.25;;;;;-142.59;100.00;56100.38;5109765;27;49825;-68
2022/04/04 07:11:29;;;;;;;;;21.75;17.75;;;;;-142.59;100.00;56100.38;5101678;27;49869;-67
2022/04/04 07:13:55;;;;;;;;;13.50;13.00;;;;;-142.59;100.00;56100.38;5106269;27;50688;-68
2022/04/04 07:16:20;;;;;;;;;16.75;16.25;;;;;-142.59;100.00;56100.38;5105410;27;50805;-68
2022/04/04 07:18:47;;;;;;;;;17.00;13.50;;;;;-142.59;100.00;56100.38;5106863;27;49895;-68
2022/04/04 07:21:12;;;;;;;;;15.00;14.25;;;;;-142.59;100.00;56100.38;5108402;27;49841;-69
2022/04/04 07:23:38;;;;;;;;;16.50;14.75;;;;;-142.59;100.00;56100.38;5095171;27;49777;-68
2022/04/04 07:26:03;;;;;;;;;16.25;12.75;;;;;-142.59;100.00;56100.38;5107473;27;49747;-72
2022/04/04 07:28:28;;;;;;;;;19.00;16.50;;;;;-142.59;100.00;56100.38;5108490;27;50160;-68
2022/04/04 07:30:55;;;;;;;;;15.00;13.25;;;;;-142.59;100.00;56100.38;5100770;27;50009;-69
2022/04/04 07:33:20;;;;;;;;;13.75;13.00;;;;;-142.59;100.00;56100.38;5109760;27;49765;-68
2022/04/04 07:35:46;;;;;;;;;15.75;15.75;;;;;-142.59;100.00;56100.38;5110988;27;49745;-68
2022/04/04 07:38:12;;;;;;;;;16.00;14.50;;;;;-142.59;100.00;56100.38;5111264;27;49655;-68
2022/04/04 07:40:38;;;;;;;;;12.25;12.25;;;;;-142.59;100.00;56100.38;5111131;27;49975;-67
2022/04/04 07:43:04;;;;;;;;;11.25;9.00;;;;;-142.59;100.00;56100.38;5110554;27;50794;-65
2022/04/04 07:45:31;;;;;;;;;10.00;10.00;;;;;-142.59;100.00;56100.38;5110839;27;49811;-64
2022/04/04 07:47:57;;;;;;;;;11.50;10.50;;;;;-142.59;100.00;56100.38;5110704;27;49783;-67
2022/04/04 07:50:23;;;;;;;;;9.00;9.00;;;;;-142.59;100.00;56100.38;5111049;27;50078;-64
2022/04/04 07:52:49;;;;;;;;;9.25;9.25;;;;;-142.59;100.00;56100.38;5110569;27;50833;-63
2022/04/04 07:55:15;;;;;;;;;11.00;11.00;;;;;-142.59;100.00;56100.38;5110796;27;49685;-72
2022/04/04 07:57:42;;;;;;;;;9.75;8.25;;;;;-142.59;100.00;56100.38;5114317;27;49843;-64
2022/04/04 08:00:09;;;;;;;;;6.00;6.00;;;;;-142.59;100.00;56100.38;5114686;27;49790;-68
2022/04/04 08:02:35;;;;;;;;;9.75;8.75;;;;;-142.59;100.00;56100.38;5114200;27;49757;-69
2022/04/04 08:05:01;;;;;;;;;5.00;5.00;;;;;-142.59;100.00;56100.38;5114176;27;49752;-66
2022/04/04 08:07:26;;;;;;;;;5.00;5.00;;;;;-142.59;100.00;56100.38;5113975;27;49997;-68
2022/04/04 08:09:51;;;;;;;;;3.25;3.25;;;;;-142.59;100.00;56100.38;5114591;27;49839;-67
2022/04/04 08:12:17;;;;;;;;;5.50;5.00;;;;;-142.59;100.00;56100.38;5114120;27;50825;-63
2022/04/04 08:14:44;;;;;;;;;6.75;4.00;;;;;-142.59;100.00;56100.38;5113862;27;50337;-66
2022/04/04 08:17:09;;;;;;;;;6.00;6.00;;;;;-142.59;100.00;56100.38;5114297;27;49954;-64
2022/04/04 08:19:35;;;;;;;;;4.00;1.50;;;;;-142.59;100.00;56100.38;5114639;27;50155;-68
2022/04/04 08:22:01;;;;;;;;;4.00;4.00;;;;;-142.59;100.00;56100.38;5114074;27;50078;-68
2022/04/04 08:24:27;;;;;;;;;6.00;5.00;;;;;-142.59;100.00;56100.38;5113954;27;49828;-70
2022/04/04 08:26:53;;;;;;;;;2.25;1.00;;;;;-142.59;100.00;56100.38;5114088;27;49799;-62
2022/04/04 08:29:19;;;;;;;;;5.00;5.00;;;;;-142.59;100.00;56100.38;5114413;27;50072;-71
2022/04/04 08:31:44;;;;;;;;;5.00;5.00;;;;;-142.59;100.00;56100.38;5113969;27;50313;-72
2022/04/04 08:34:10;;;;;;;;;4.75;3.00;;;;;-142.59;100.00;56100.38;5114310;27;49932;-68
2022/04/04 08:36:35;;;;;;;;;5.00;5.00;;;;;-142.59;100.00;56100.38;5113727;27;49772;-72
2022/04/04 08:39:01;;;;;;;;;5.50;5.00;;;;;-142.59;100.00;56100.38;5113897;27;49820;-62
2022/04/04 08:41:31;;;;;;;;;5.00;3.00;;;;;-142.59;100.00;56100.38;5113525;27;49752;-69
2022/04/04 08:44:00;;;;;;;;;5.00;5.00;;;;;-142.59;100.00;56100.38;5113368;27;49753;-70
2022/04/04 08:46:26;;;;;;;;;2.75;2.75;;;;;-142.59;100.00;56100.38;5113696;27;49709;-70
2022/04/04 08:48:55;;;;;;;;;2.00;2.00;;;;;-142.59;100.00;56100.38;5113934;27;49817;-68
2022/04/04 08:51:21;;;;;;;;;4.25;2.25;;;;;-142.59;100.00;56100.38;5113540;27;50836;-72
2022/04/04 08:53:48;;;;;;;;;5.00;5.00;;;;;-142.59;100.00;56100.38;5113971;27;49756;-72
2022/04/04 08:56:17;;;;;;;;;5.25;4.50;;;;;-142.59;100.00;56100.38;5113283;27;49740;-71
2022/04/04 08:58:43;;;;;;;;;3.50;3.50;;;;;-142.59;100.00;56100.38;5113445;27;49986;-62
2022/04/04 09:01:08;;;;;;;;;4.75;4.75;;;;;-142.59;100.00;56100.38;5113142;27;49798;-62
2022/04/04 09:03:34;;;;;;;;;2.50;2.50;;;;;-142.59;100.00;56100.38;5113369;27;49809;-63
2022/04/04 09:06:03;;;;;;;;;3.75;3.00;;;;;-142.59;100.00;56100.38;5113433;27;50043;-62
2022/04/04 09:08:29;;;;;;;;;3.00;3.00;;;;;-142.59;100.00;56100.38;5113240;27;49906;-64
2022/04/04 09:11:00;;;;;;;;;3.50;3.50;;;;;-142.59;100.00;56100.38;5113156;27;49860;-62
2022/04/04 09:13:27;;;;;;;;;3.00;3.00;;;;;-142.59;100.00;56100.38;5113464;27;49818;-63
2022/04/04 09:16:01;;;;;;;;;10.00;6.25;;;;;-142.59;100.00;56100.38;5093285;27;49872;-62
2022/04/04 09:18:36;;;;;;;;;3.00;3.00;;;;;-142.59;100.00;56100.38;5113102;27;50058;-62
2022/04/04 09:21:22;;;;;;;;;2.75;2.00;;;;;-142.59;100.00;56100.38;5111900;27;52670;-63
2022/04/04 09:23:50;;;;;;;;;2.00;1.00;;;;;-142.59;100.00;56100.38;5112805;27;49771;-62
2022/04/04 09:26:32;;;;;;;;;3.00;3.00;;;;;-142.59;100.00;56100.38;5113325;27;49907;-62
2022/04/04 09:29:05;;;;;;;;;2.00;2.00;;;;;-142.59;100.00;56100.38;5113505;27;49798;-61
2022/04/04 09:31:31;;;;;;;;;2.00;1.00;;;;;-142.59;100.00;56100.38;5112859;27;49691;-62
2022/04/04 09:34:00;;;;;;;;;1.25;1.25;;;;;-142.59;100.00;56100.38;5112836;27;49707;-66
2022/04/04 09:36:25;;;;;;;;;4.75;2.75;;;;;-142.59;100.00;56100.38;5112756;27;49712;-63
2022/04/04 09:39:02;;;;;;;;;2.00;2.00;;;;;-142.59;100.00;56100.38;5112996;27;49658;-66
2022/04/04 09:41:28;;;;;;;;;0.75;0.50;;;;;-142.59;100.00;56100.38;5112667;27;50558;-71
2022/04/04 09:44:02;;;;;;;;;4.75;2.75;;;;;-142.59;100.00;56100.38;5112451;27;49844;-62
2022/04/04 09:46:38;;;;;;;;;3.50;1.00;;;;;-142.59;100.00;56100.38;5112865;27;49792;-66
2022/04/04 09:49:13;;;;;;;;;2.00;2.00;;;;;-142.59;100.00;56100.38;5112939;27;50146;-63
2022/04/04 09:51:46;;;;;;;;;2.00;2.00;;;;;-142.59;100.00;56100.38;5112274;27;49845;-62
2022/04/04 09:54:16;;;;;;;;;1.00;0.00;;;;;-142.59;100.00;56100.38;5112355;27;49878;-62
2022/04/04 09:56:42;;;;;;;;;1.00;1.00;;;;;-142.59;100.00;56100.38;5112524;27;49836;-62
2022/04/04 09:59:11;;;;;;;;;2.00;2.00;;;;;-142.59;100.00;56100.38;5112479;27;49723;-62
2022/04/04 10:01:38;;;;;;;;;3.75;3.25;;;;;-142.59;100.00;56100.38;5112771;27;50150;-64
2022/04/04 10:04:06;;;;;;;;;1.00;0.75;;;;;-142.59;100.00;56100.38;5112455;27;49638;-62
2022/04/04 10:06:33;;;;;;;;;3.00;0.25;;;;;-142.59;100.00;56100.38;5112408;27;49810;-63
2022/04/04 10:09:00;;;;;;;;;2.00;2.00;;;;;-142.59;100.00;56100.38;5112486;27;49888;-63
2022/04/04 10:11:27;;;;;;;;;1.00;1.00;;;;;-142.59;100.00;56100.38;5112017;27;50325;-63
2022/04/04 10:13:54;;;;;;;;;2.50;1.25;;;;;-142.59;100.00;56100.38;5110980;27;49895;-66
2022/04/04 10:16:22;;;;;;;;;1.25;1.25;;;;;-142.59;100.00;56100.38;5112242;27;49826;-62
2022/04/04 10:18:49;;;;;;;;;2.25;2.25;;;;;-142.59;100.00;56100.38;5111790;27;49898;-63
2022/04/04 10:21:14;;;;;;;;;3.00;3.00;;;;;-142.59;100.00;56100.38;5110337;27;50629;-63
2022/04/04 10:23:41;;;;;;;;;2.25;2.00;;;;;-142.59;100.00;56100.38;5112503;27;49904;-66
2022/04/04 10:26:07;;;;;;;;;1.50;1.00;;;;;-142.59;100.00;56100.38;5112576;27;49961;-62
2022/04/04 10:28:46;;;;;;;;;2.75;1.50;;;;;-142.59;100.00;56100.38;5111855;27;50062;-62
2022/04/04 10:31:15;;;;;;;;;2.50;2.00;;;;;-142.59;100.00;56100.38;5111581;27;50539;-64
2022/04/04 10:33:41;;;;;;;;;4.00;4.00;;;;;-142.59;100.00;56100.38;5111889;27;49679;-63
2022/04/04 10:36:13;;;;;;;;;2.75;2.75;;;;;-142.59;100.00;56100.38;5112173;27;49883;-62
2022/04/04 10:38:44;;;;;;;;;3.00;3.00;;;;;-142.59;100.00;56100.38;5112057;27;49935;-65
2022/04/04 10:41:13;;;;;;;;;3.00;3.00;;;;;-142.59;100.00;56100.38;5112061;27;50882;-62
2022/04/04 10:43:40;;;;;;;;;3.25;2.25;;;;;-142.59;100.00;56100.38;5111307;27;49869;-65
2022/04/04 10:46:10;;;;;;;;;1.00;1.00;;;;;-142.59;100.00;56100.38;5111616;27;49932;-63
2022/04/04 10:48:50;;;;;;;;;9.75;5.00;;;;;-142.59;100.00;56100.38;5111653;27;49725;-63
2022/04/04 10:51:17;;;;;;;;;2.75;2.75;;;;;-142.59;100.00;56100.38;5111830;27;51256;-62
2022/04/04 10:53:44;;;;;;;;;2.50;2.50;;;;;-142.59;100.00;56100.38;5111454;27;49742;-61
2022/04/04 10:56:15;;;;;;;;;1.50;1.50;;;;;-142.59;100.00;56100.38;5111444;27;49911;-63
2022/04/04 10:58:40;;;;;;;;;4.00;4.00;;;;;-142.59;100.00;56100.38;5111632;27;49665;-61
2022/04/04 11:01:15;;;;;;;;;2.50;2.50;;;;;-142.59;100.00;56100.38;5111346;27;49873;-60